createdAt,value
2022-09-18T00:01:33.020Z,62.06
2022-09-18T00:04:04.095Z,62.02
2022-09-18T00:06:35.440Z,61.62
2022-09-18T00:09:06.012Z,62.17
2022-09-18T00:11:43.642Z,62.43
2022-09-18T00:14:15.763Z,61.79
2022-09-18T00:16:43.348Z,61.95
2022-09-18T00:19:11.722Z,62.18
2022-09-18T00:21:43.840Z,62.47
2022-09-18T00:24:12.064Z,62.68
2022-09-18T00:26:39.983Z,62.92
2022-09-18T00:29:07.388Z,65.08
2022-09-18T00:31:36.218Z,66.73
2022-09-18T00:34:08.627Z,67.31
2022-09-18T00:36:36.321Z,67.50
2022-09-18T00:39:03.943Z,67.25
2022-09-18T00:41:35.647Z,67.58
2022-09-18T00:44:33.564Z,66.71
2022-09-18T00:47:27.077Z,66.89
2022-09-18T00:50:26.908Z,67.11
2022-09-18T00:53:03.576Z,66.76
2022-09-18T00:55:38.226Z,67.08
2022-09-18T00:58:06.616Z,66.76
2022-09-18T01:00:34.126Z,66.45
2022-09-18T01:03:01.962Z,65.95
2022-09-18T01:05:39.515Z,65.49
2022-09-18T01:08:40.647Z,65.42
2022-09-18T01:11:22.938Z,65.30
2022-09-18T01:13:58.904Z,64.76
2022-09-18T01:16:30.688Z,64.32
2022-09-18T01:19:34.966Z,63.81
2022-09-18T01:22:50.363Z,63.94
2022-09-18T01:25:22.945Z,65.75
2022-09-18T01:28:17.076Z,66.07
2022-09-18T01:30:49.053Z,66.58
2022-09-18T01:33:53.047Z,66.44
2022-09-18T01:36:23.933Z,66.85
2022-09-18T01:39:08.772Z,66.47
2022-09-18T01:41:38.700Z,68.14
2022-09-18T01:44:14.823Z,70.03
2022-09-18T01:46:44.586Z,69.77
2022-09-18T01:49:21.253Z,69.73
2022-09-18T01:51:57.401Z,69.89
2022-09-18T01:54:31.414Z,69.90
2022-09-18T01:57:08.401Z,70.58
2022-09-18T01:59:45.039Z,70.04
2022-09-18T02:02:29.240Z,69.55
2022-09-18T02:05:01.095Z,71.11
2022-09-18T02:07:34.842Z,72.98
2022-09-18T02:10:03.705Z,73.23
2022-09-18T02:12:34.958Z,73.06
2022-09-18T02:15:10.547Z,72.41
2022-09-18T02:17:59.759Z,71.48
2022-09-18T02:20:37.384Z,71.19
2022-09-18T02:23:08.022Z,70.74
2022-09-18T02:25:53.713Z,70.96
2022-09-18T02:28:24.324Z,70.86
2022-09-18T02:30:51.921Z,70.92
2022-09-18T02:33:31.214Z,71.72
2022-09-18T02:36:14.122Z,72.36
2022-09-18T02:39:09.364Z,71.99
2022-09-18T02:41:51.742Z,72.54
2022-09-18T02:44:55.806Z,72.31
2022-09-18T02:48:05.287Z,72.83
2022-09-18T02:51:10.007Z,72.83
2022-09-18T02:53:47.048Z,72.91
2022-09-18T02:56:44.784Z,73.60
2022-09-18T02:59:18.757Z,73.77
2022-09-18T03:01:54.371Z,74.48
2022-09-18T03:04:26.091Z,74.89
2022-09-18T03:07:07.902Z,75.49
2022-09-18T03:09:41.171Z,75.41
2022-09-18T03:12:08.877Z,75.79
2022-09-18T03:14:44.082Z,75.44
2022-09-18T03:17:11.305Z,74.71
2022-09-18T03:19:38.598Z,74.29
2022-09-18T03:22:06.585Z,73.96
2022-09-18T03:24:36.999Z,73.80
2022-09-18T03:27:07.842Z,74.02
2022-09-18T03:29:39.564Z,73.56
2022-09-18T03:32:10.217Z,74.16
2022-09-18T03:34:44.966Z,74.04
2022-09-18T03:37:12.642Z,74.32
2022-09-18T03:39:40.065Z,73.53
2022-09-18T03:42:10.159Z,73.22
2022-09-18T03:44:37.390Z,72.99
2022-09-18T03:47:12.059Z,73.38
2022-09-18T03:49:39.174Z,72.97
2022-09-18T03:52:06.252Z,72.38
2022-09-18T03:54:39.314Z,72.09
2022-09-18T03:57:24.756Z,72.26
2022-09-18T04:00:00.874Z,72.20
2022-09-18T04:02:43.580Z,71.74
2022-09-18T04:05:29.366Z,71.77
2022-09-18T04:08:17.186Z,71.44
2022-09-18T04:11:20.457Z,71.18
2022-09-18T04:13:47.542Z,71.45
2022-09-18T04:16:14.907Z,71.27
2022-09-18T04:18:42.038Z,70.53
2022-09-18T04:21:09.391Z,70.99
2022-09-18T04:23:36.581Z,70.62
2022-09-18T04:26:09.052Z,69.27
2022-09-18T04:28:40.477Z,69.76
2022-09-18T04:31:09.577Z,69.78
2022-09-18T04:33:37.132Z,69.25
2022-09-18T04:36:07.212Z,69.60
2022-09-18T04:38:35.632Z,69.26
2022-09-18T04:41:02.782Z,69.19
2022-09-18T04:43:31.040Z,69.32
2022-09-18T04:45:59.722Z,69.08
2022-09-18T04:48:26.940Z,69.27
2022-09-18T04:50:55.576Z,68.86
2022-09-18T04:53:22.917Z,68.78
2022-09-18T04:55:50.063Z,68.66
2022-09-18T04:58:28.289Z,68.44
2022-09-18T05:01:17.684Z,68.93
2022-09-18T05:03:45.003Z,69.26
2022-09-18T05:06:21.261Z,69.14
2022-09-18T05:08:49.270Z,68.88
2022-09-18T05:11:18.906Z,68.61
2022-09-18T05:13:50.017Z,68.46
2022-09-18T05:16:19.953Z,67.96
2022-09-18T05:19:01.606Z,68.39
2022-09-18T05:21:31.391Z,68.41
2022-09-18T05:23:59.151Z,68.08
2022-09-18T05:26:26.973Z,68.61
2022-09-18T05:28:58.263Z,68.01
2022-09-18T05:31:25.353Z,67.88
2022-09-18T05:33:52.732Z,67.29
2022-09-18T05:36:19.858Z,67.00
2022-09-18T05:38:49.369Z,66.66
2022-09-18T05:41:18.295Z,67.07
2022-09-18T05:43:46.216Z,66.39
2022-09-18T05:46:14.892Z,65.93
2022-09-18T05:48:50.158Z,65.75
2022-09-18T05:51:17.427Z,65.19
2022-09-18T05:53:48.427Z,65.22
2022-09-18T05:56:30.853Z,65.78
2022-09-18T05:58:58.226Z,65.64
2022-09-18T06:01:25.351Z,65.33
2022-09-18T06:04:18.737Z,65.31
2022-09-18T06:07:06.463Z,65.73
2022-09-18T06:09:33.706Z,64.92
2022-09-18T06:12:00.929Z,64.82
2022-09-18T06:14:28.160Z,63.93
2022-09-18T06:16:57.271Z,63.93
2022-09-18T06:19:24.364Z,64.31
2022-09-18T06:21:52.568Z,63.86
2022-09-18T06:24:21.495Z,63.04
2022-09-18T06:27:09.125Z,62.19
2022-09-18T06:29:36.326Z,62.06
2022-09-18T06:32:12.482Z,61.21
2022-09-18T06:34:40.809Z,60.94
2022-09-18T06:37:12.255Z,59.54
2022-09-18T06:39:42.325Z,59.46
2022-09-18T06:42:15.878Z,58.86
2022-09-18T06:45:07.000Z,59.00
2022-09-18T06:47:34.713Z,59.04
2022-09-18T06:50:02.104Z,58.56
2022-09-18T06:52:29.665Z,57.76
2022-09-18T06:55:00.118Z,57.93
2022-09-18T06:57:31.857Z,56.82
2022-09-18T06:59:59.009Z,57.61
2022-09-18T07:02:27.576Z,56.98
2022-09-18T07:04:58.798Z,57.90
2022-09-18T07:07:27.087Z,56.48
2022-09-18T07:09:55.655Z,56.92
2022-09-18T07:12:36.639Z,57.05
2022-09-18T07:15:06.419Z,57.63
2022-09-18T07:17:34.016Z,58.09
2022-09-18T07:20:02.283Z,59.23
2022-09-18T07:22:46.984Z,59.02
2022-09-18T07:25:14.882Z,58.93
2022-09-18T07:27:43.714Z,60.13
2022-09-18T07:30:13.035Z,59.98
2022-09-18T07:32:40.262Z,60.44
2022-09-18T07:35:13.762Z,59.99
2022-09-18T07:37:40.890Z,59.56
2022-09-18T07:40:17.215Z,58.33
2022-09-18T07:43:08.735Z,58.35
2022-09-18T07:45:38.914Z,58.35
2022-09-18T07:48:07.986Z,57.68
2022-09-18T07:50:42.938Z,58.11
2022-09-18T07:53:10.626Z,57.14
2022-09-18T07:55:43.018Z,57.39
2022-09-18T07:58:10.090Z,57.52
2022-09-18T08:01:00.391Z,56.57
2022-09-18T08:03:28.115Z,56.07
2022-09-18T08:06:10.176Z,54.74
2022-09-18T08:08:40.007Z,54.08
2022-09-18T08:11:15.371Z,54.20
2022-09-18T08:13:54.058Z,54.39
2022-09-18T08:16:42.792Z,53.50
2022-09-18T08:19:13.106Z,52.56
2022-09-18T08:21:43.648Z,52.94
2022-09-18T08:24:13.506Z,53.47
2022-09-18T08:26:41.209Z,53.70
2022-09-18T08:29:08.331Z,54.03
2022-09-18T08:31:37.486Z,53.72
2022-09-18T08:34:07.776Z,53.12
2022-09-18T08:36:35.006Z,52.43
2022-09-18T08:39:10.280Z,52.29
2022-09-18T08:42:26.085Z,51.75
2022-09-18T08:45:02.887Z,50.57
2022-09-18T08:47:42.648Z,48.78
2022-09-18T08:50:25.585Z,48.38
2022-09-18T08:53:07.252Z,48.87
2022-09-18T08:55:55.688Z,48.78
2022-09-18T08:58:57.405Z,48.94
2022-09-18T09:01:43.670Z,47.85
2022-09-18T09:04:22.847Z,47.58
2022-09-18T09:07:24.850Z,47.10
2022-09-18T09:10:35.170Z,47.30
2022-09-18T09:13:47.558Z,48.37
2022-09-18T09:16:17.107Z,48.49
2022-09-18T09:18:55.521Z,49.09
2022-09-18T09:22:04.840Z,48.73
2022-09-18T09:25:14.173Z,48.26
2022-09-18T09:28:04.760Z,46.82
2022-09-18T09:30:57.414Z,46.41
2022-09-18T09:34:13.804Z,46.88
2022-09-18T09:37:01.001Z,46.70
2022-09-18T09:39:43.027Z,47.01
2022-09-18T09:42:29.147Z,46.36
2022-09-18T09:45:16.285Z,45.90
2022-09-18T09:48:26.632Z,46.50
2022-09-18T09:51:19.693Z,47.17
2022-09-18T09:53:46.968Z,47.88
2022-09-18T09:56:52.159Z,46.89
2022-09-18T09:59:40.142Z,45.73
2022-09-18T10:02:56.056Z,46.06
2022-09-18T10:05:36.275Z,43.77
2022-09-18T10:08:27.863Z,44.96
2022-09-18T10:10:59.528Z,44.39
2022-09-18T10:13:38.234Z,43.77
2022-09-18T10:16:12.069Z,43.32
2022-09-18T10:18:48.294Z,44.22
2022-09-18T10:21:19.491Z,44.95
2022-09-18T10:24:35.154Z,48.00
2022-09-18T10:27:14.931Z,47.59
2022-09-18T10:29:43.727Z,47.96
2022-09-18T10:32:38.068Z,47.91
2022-09-18T10:35:29.831Z,48.20
2022-09-18T10:37:59.367Z,48.66
2022-09-18T10:40:39.811Z,47.97
2022-09-18T10:43:17.888Z,45.80
2022-09-18T10:45:54.801Z,45.14
2022-09-18T10:48:28.275Z,45.27
2022-09-18T10:50:59.304Z,47.84
2022-09-18T10:53:39.880Z,49.86
2022-09-18T10:56:20.236Z,50.35
2022-09-18T10:58:50.052Z,49.05
2022-09-18T11:01:17.740Z,48.82
2022-09-18T11:04:05.051Z,48.84
2022-09-18T11:06:37.922Z,47.61
2022-09-18T11:09:39.112Z,47.44
2022-09-18T11:12:21.580Z,46.30
2022-09-18T11:15:03.665Z,43.82
2022-09-18T11:17:42.550Z,43.23
2022-09-18T11:20:42.509Z,42.16
2022-09-18T11:23:25.822Z,41.19
2022-09-18T11:26:21.271Z,41.31
2022-09-18T11:29:17.300Z,38.59
2022-09-18T11:31:51.914Z,39.06
2022-09-18T11:34:37.288Z,37.08
2022-09-18T11:37:10.641Z,37.63
2022-09-18T11:39:50.184Z,36.43
2022-09-18T11:42:18.354Z,35.17
2022-09-18T11:44:48.194Z,34.47
2022-09-18T11:47:43.069Z,33.46
2022-09-18T11:50:26.714Z,32.25
2022-09-18T11:52:59.978Z,32.72
2022-09-18T11:55:40.603Z,32.62
2022-09-18T11:58:28.915Z,32.03
2022-09-18T12:01:06.184Z,31.37
2022-09-18T12:04:16.883Z,30.55
2022-09-18T12:06:47.708Z,27.74
2022-09-18T12:09:33.877Z,25.86
2022-09-18T12:12:28.227Z,26.27
2022-09-18T12:15:19.742Z,27.48
2022-09-18T12:18:16.277Z,27.31
2022-09-18T12:21:03.169Z,27.72
2022-09-18T12:23:30.420Z,27.75
2022-09-18T12:26:44.797Z,31.01
2022-09-18T12:30:02.305Z,33.53
2022-09-18T12:32:46.042Z,31.19
2022-09-18T12:35:24.890Z,30.72
2022-09-18T12:38:04.212Z,32.28
2022-09-18T12:41:00.897Z,32.01
2022-09-18T12:43:27.883Z,32.70
2022-09-18T12:46:11.212Z,32.81
2022-09-18T12:49:18.790Z,34.29
2022-09-18T12:52:04.517Z,34.07
2022-09-18T12:54:49.988Z,33.73
2022-09-18T12:57:40.623Z,33.26
2022-09-18T13:00:12.697Z,32.62
2022-09-18T13:03:11.849Z,32.48
2022-09-18T13:05:51.930Z,32.73
2022-09-18T13:08:28.396Z,31.13
2022-09-18T13:11:02.929Z,34.26
2022-09-18T13:14:01.642Z,30.47
2022-09-18T13:16:40.030Z,28.61
2022-09-18T13:19:32.950Z,29.37
2022-09-18T13:22:06.080Z,29.84
2022-09-18T13:24:35.975Z,28.52
2022-09-18T13:27:10.222Z,28.07
2022-09-18T13:29:52.547Z,29.88
2022-09-18T13:32:41.311Z,29.41
2022-09-18T13:35:14.455Z,28.98
2022-09-18T13:37:42.938Z,29.82
2022-09-18T13:40:39.474Z,29.71
2022-09-18T13:43:23.400Z,31.69
2022-09-18T13:45:51.205Z,32.19
2022-09-18T13:48:44.849Z,34.85
2022-09-18T13:51:31.486Z,36.40
2022-09-18T13:54:14.109Z,37.39
2022-09-18T13:57:15.912Z,37.60
2022-09-18T14:00:09.187Z,38.17
2022-09-18T14:02:40.709Z,39.88
2022-09-18T14:05:09.898Z,40.20
2022-09-18T14:07:36.939Z,41.09
2022-09-18T14:10:26.977Z,42.24
2022-09-18T14:13:22.817Z,43.26
2022-09-18T14:16:21.481Z,42.97
2022-09-18T14:18:48.637Z,44.11
2022-09-18T14:21:18.900Z,44.89
2022-09-18T14:23:48.816Z,44.73
2022-09-18T14:26:31.999Z,45.16
2022-09-18T14:29:11.158Z,45.19
2022-09-18T14:31:45.546Z,45.58
2022-09-18T14:34:40.758Z,46.28
2022-09-18T14:37:35.466Z,46.74
2022-09-18T14:40:20.946Z,47.23
2022-09-18T14:42:48.997Z,47.87
2022-09-18T14:45:30.581Z,48.58
2022-09-18T14:47:59.303Z,49.51
2022-09-18T14:50:40.185Z,50.82
2022-09-18T14:53:24.392Z,50.81
2022-09-18T14:56:07.969Z,50.58
2022-09-18T14:58:39.756Z,51.17
2022-09-18T15:01:15.223Z,51.61
2022-09-18T15:03:46.966Z,51.58
2022-09-18T15:06:25.067Z,53.87
2022-09-18T15:08:55.156Z,54.59
2022-09-18T15:11:31.994Z,55.26
2022-09-18T15:14:22.025Z,55.68
2022-09-18T15:16:58.835Z,56.92
2022-09-18T15:19:27.305Z,57.59
2022-09-18T15:21:54.735Z,58.79
2022-09-18T15:24:22.057Z,59.06
2022-09-18T15:26:57.749Z,58.50
2022-09-18T15:29:36.809Z,58.90
2022-09-18T15:32:05.908Z,58.90
2022-09-18T15:34:43.513Z,59.23
2022-09-18T15:37:22.280Z,59.00
2022-09-18T15:40:06.006Z,58.55
2022-09-18T15:42:37.396Z,58.72
2022-09-18T15:45:14.841Z,59.01
2022-09-18T15:47:43.273Z,58.64
2022-09-18T15:50:13.730Z,58.57
2022-09-18T15:52:54.035Z,58.89
2022-09-18T15:55:34.212Z,58.64
2022-09-18T15:58:05.435Z,58.25
2022-09-18T16:00:37.489Z,58.76
2022-09-18T16:03:08.601Z,59.20
2022-09-18T16:05:38.080Z,59.32
2022-09-18T16:08:18.707Z,58.62
2022-09-18T16:10:53.243Z,58.22
2022-09-18T16:13:20.337Z,58.33
2022-09-18T16:16:20.411Z,58.88
2022-09-18T16:18:52.541Z,58.59
2022-09-18T16:21:20.536Z,58.64
2022-09-18T16:23:56.058Z,58.24
2022-09-18T16:26:30.966Z,57.32
2022-09-18T16:29:07.185Z,57.83
2022-09-18T16:31:37.766Z,57.43
2022-09-18T16:34:18.370Z,57.74
2022-09-18T16:36:46.673Z,56.69
2022-09-18T16:39:18.264Z,56.69
2022-09-18T16:41:46.350Z,56.94
2022-09-18T16:44:16.013Z,56.78
2022-09-18T16:46:51.290Z,56.80
2022-09-18T16:49:30.411Z,56.91
2022-09-18T16:51:57.986Z,56.83
2022-09-18T16:54:25.892Z,56.69
2022-09-18T16:57:10.597Z,56.54
2022-09-18T16:59:42.525Z,56.25
2022-09-18T17:02:10.970Z,56.85
2022-09-18T17:04:38.219Z,56.90
2022-09-18T17:07:06.618Z,56.99
2022-09-18T17:09:33.933Z,57.23
2022-09-18T17:12:01.125Z,57.32
2022-09-18T17:14:28.411Z,57.04
2022-09-18T17:16:55.759Z,56.74
2022-09-18T17:19:22.945Z,56.54
2022-09-18T17:21:50.412Z,56.73
2022-09-18T17:24:18.034Z,56.52
2022-09-18T17:26:45.181Z,56.11
2022-09-18T17:29:12.411Z,56.25
2022-09-18T17:31:39.723Z,56.78
2022-09-18T17:34:07.391Z,56.90
2022-09-18T17:36:36.895Z,56.79
2022-09-18T17:39:04.721Z,56.45
2022-09-18T17:41:33.544Z,56.69
2022-09-18T17:44:00.738Z,56.82
2022-09-18T17:46:27.975Z,57.37
2022-09-18T17:48:57.026Z,57.54
2022-09-18T17:51:28.409Z,57.54
2022-09-18T17:54:05.270Z,57.32
2022-09-18T17:56:33.931Z,57.56
2022-09-18T17:59:07.821Z,57.31
2022-09-18T18:01:43.209Z,57.34
2022-09-18T18:04:10.362Z,57.72
2022-09-18T18:06:37.737Z,57.79
2022-09-18T18:09:07.312Z,57.93
2022-09-18T18:11:34.737Z,58.06
2022-09-18T18:14:02.269Z,58.35
2022-09-18T18:16:32.172Z,57.79
2022-09-18T18:19:06.162Z,57.46
2022-09-18T18:21:34.331Z,57.03
2022-09-18T18:24:08.911Z,57.19
2022-09-18T18:26:38.515Z,57.08
2022-09-18T18:29:10.747Z,57.48
2022-09-18T18:31:40.658Z,57.55
2022-09-18T18:34:10.835Z,58.03
2022-09-18T18:36:41.189Z,57.83
2022-09-18T18:39:12.997Z,57.93
2022-09-18T18:41:41.033Z,57.60
2022-09-18T18:48:15.948Z,56.98
2022-09-18T18:50:43.042Z,57.41
2022-09-18T18:53:10.377Z,57.11
2022-09-18T18:55:37.839Z,57.34
2022-09-18T18:58:10.671Z,57.20
2022-09-18T19:00:38.159Z,57.16
2022-09-18T19:03:05.556Z,57.29
2022-09-18T19:05:33.140Z,56.88
2022-09-18T19:08:00.306Z,57.19
2022-09-18T19:10:29.625Z,57.18
2022-09-18T19:12:57.805Z,57.54
2022-09-18T19:15:26.563Z,57.72
2022-09-18T19:18:00.135Z,57.55
2022-09-18T19:20:27.403Z,57.51
2022-09-18T19:22:57.169Z,57.31
2022-09-18T19:25:25.574Z,57.48
2022-09-18T19:27:59.325Z,57.49
2022-09-18T19:30:26.730Z,57.14
2022-09-18T19:32:55.603Z,56.99
2022-09-18T19:35:23.241Z,57.39
2022-09-18T19:37:50.338Z,57.30
2022-09-18T19:40:18.176Z,57.45
2022-09-18T19:42:58.025Z,57.58
2022-09-18T19:45:29.827Z,58.24
2022-09-18T19:47:57.606Z,58.33
2022-09-18T19:50:32.854Z,58.09
2022-09-18T19:53:01.660Z,58.32
2022-09-18T19:55:29.502Z,58.46
2022-09-18T19:57:59.330Z,58.74
2022-09-18T20:00:27.083Z,58.71
2022-09-18T20:02:58.962Z,58.55
2022-09-18T20:05:27.034Z,58.35
2022-09-18T20:07:54.078Z,58.42
2022-09-18T20:10:22.951Z,58.40
2022-09-18T20:12:52.658Z,58.24
2022-09-18T20:15:20.116Z,58.42
2022-09-18T20:17:47.362Z,58.88
2022-09-18T20:20:16.615Z,58.77
2022-09-18T20:22:44.372Z,58.87
2022-09-18T20:25:11.736Z,58.84
2022-09-18T20:27:42.120Z,59.09
2022-09-18T20:30:12.618Z,59.26
2022-09-18T20:32:39.865Z,59.22
2022-09-18T20:35:07.576Z,58.94
2022-09-18T20:37:34.704Z,59.26
2022-09-18T20:40:04.652Z,59.21
2022-09-18T20:42:34.534Z,59.29
2022-09-18T20:45:02.559Z,59.49
2022-09-18T20:47:35.902Z,59.44
2022-09-18T20:50:09.906Z,59.69
2022-09-18T20:52:39.598Z,59.60
2022-09-18T20:55:12.796Z,59.52
2022-09-18T20:57:40.932Z,60.05
2022-09-18T21:00:11.305Z,60.19
2022-09-18T21:02:38.436Z,60.00
2022-09-18T21:05:13.014Z,59.69
2022-09-18T21:07:43.740Z,59.76
2022-09-18T21:10:19.866Z,59.53
2022-09-18T21:12:47.521Z,59.60
2022-09-18T21:15:15.205Z,59.69
2022-09-18T21:17:43.185Z,59.73
2022-09-18T21:20:10.944Z,60.46
2022-09-18T21:23:00.632Z,60.09
2022-09-18T21:25:30.724Z,59.95
2022-09-18T21:27:58.032Z,60.18
2022-09-18T21:30:26.726Z,60.01
2022-09-18T21:32:55.761Z,60.07
2022-09-18T21:35:23.117Z,60.04
2022-09-18T21:37:50.299Z,60.16
2022-09-18T21:40:17.410Z,60.14
2022-09-18T21:42:47.633Z,60.05
2022-09-18T21:45:19.949Z,60.18
2022-09-18T21:47:49.383Z,60.26
2022-09-18T21:50:16.793Z,59.83
2022-09-18T21:52:44.378Z,60.28
2022-09-18T21:55:11.578Z,60.26
2022-09-18T21:57:38.832Z,60.15
2022-09-18T22:00:09.360Z,60.12
2022-09-18T22:02:40.775Z,59.82
2022-09-18T22:05:12.335Z,59.74
2022-09-18T22:07:39.450Z,59.76
2022-09-18T22:10:07.419Z,59.74
2022-09-18T22:12:36.484Z,59.32
2022-09-18T22:15:03.771Z,59.06
2022-09-18T22:17:32.043Z,59.07
2022-09-18T22:19:59.100Z,58.52
2022-09-18T22:22:27.339Z,58.64
2022-09-18T22:24:55.321Z,58.59
2022-09-18T22:27:24.196Z,58.37
2022-09-18T22:29:51.444Z,58.05
2022-09-18T22:32:19.867Z,57.70
2022-09-18T22:34:47.078Z,57.38
2022-09-18T22:37:15.355Z,56.78
2022-09-18T22:39:42.397Z,56.49
2022-09-18T22:42:09.703Z,57.08
2022-09-18T22:44:36.900Z,56.75
2022-09-18T22:47:04.868Z,57.34
2022-09-18T22:49:31.879Z,57.12
2022-09-18T22:51:59.034Z,57.29
2022-09-18T22:54:26.904Z,57.08
2022-09-18T22:56:55.608Z,57.70
2022-09-18T22:59:25.607Z,57.34
2022-09-18T23:02:01.298Z,56.77
2022-09-18T23:04:31.122Z,57.63
2022-09-18T23:06:59.339Z,57.30
2022-09-18T23:09:27.714Z,57.56
2022-09-18T23:11:55.726Z,57.64
2022-09-18T23:14:27.733Z,58.58
2022-09-18T23:16:56.244Z,59.30
2022-09-18T23:19:27.866Z,59.71
2022-09-18T23:21:56.518Z,59.78
2022-09-18T23:24:24.553Z,61.27
2022-09-18T23:26:53.943Z,61.12
2022-09-18T23:29:25.383Z,61.32
2022-09-18T23:31:55.214Z,62.10
2022-09-18T23:34:27.728Z,61.98
2022-09-18T23:36:56.214Z,62.84
2022-09-18T23:39:30.476Z,62.64
2022-09-18T23:41:59.369Z,62.25
2022-09-18T23:44:28.721Z,61.85
2022-09-18T23:46:57.497Z,62.29
2022-09-18T23:49:24.625Z,62.32
2022-09-18T23:51:54.054Z,62.39
2022-09-18T23:54:25.009Z,62.35
2022-09-18T23:56:53.165Z,62.78
2022-09-18T23:59:23.326Z,62.59
